x

Shumagin Islands - 85nm South Of Sand Point, Ak (46075) Wave Buoy

2:50 - Thu 31st Jul 2014 All times are UTC.

  • Sig Wave height 2.3ft
  • Peak Period 14s
  • Average Period 6s
  • Wind
    11mph, 13mph gusts
  • Sea Temp 57°f
  • Aire Temp 57°f
  • Sea Pressure 1023.5mb

More Historic Weather Station data

Upgrade to MSW Pro to gain access to the past 30 days of data for over 8000 Wavebouys and Weather Stations around the globe.

Join Pro

Comparision Forecast

View Surf forecast
   
jue 07/31 2:50 2.5ft 14s 6s 11 13 mph 1023.5mb 57f 57f
1:50 2.5ft 14s 6s 7 9 mph 1023.2mb 56f 57f
12:50 2.5ft 14s 6s 4 7 mph 1023mb 57f 57f
11:50 2ft 8s 6s 7
mph
1022.7mb 57f 57f
10:50 2.5ft 14s 5s 11 13 mph 1022.6mb 57f 58f
9:50 2.5ft 12s 5s 7 9 mph 1022.5mb 57f 58f
8:50 2ft 11s 4s 9 11 mph 1022.2mb 57f 58f
7:50 2.5ft 9s 4s 7 9 mph 1022.2mb 57f 57f
6:50 2.5ft 8s 4s 9 11 mph 1022mb 57f 57f
5:50 2.5ft 7s 4s 13 16 mph 1021.7mb 57f 57f
4:50 2ft 7s 4s 11 13 mph 1021.8mb 57f 57f
3:50 2.5ft 6s 5s 11 13 mph 1021.8mb 57f 58f
2:50 2.5ft 6s 5s 9 11 mph 1021.9mb 57f 58f
1:50 2.5ft 11s 5s 9 11 mph 1022mb 57f 57f
12:50 2.5ft 6s 5s 9 11 mph 1022mb 57f 57f
mié 07/30 11:50 2.5ft 14s 5s 11 13 mph 1021.9mb 57f 56f
10:50 2.5ft 14s 5s 9 11 mph 1021.9mb 57f 56f
9:50 2.5ft 11s 5s 9 11 mph 1022mb 57f 56f
8:50 2.5ft 6s 4s 9 11 mph 1022.1mb 57f 56f
7:50 2.5ft 5s 4s 11
mph
1022mb 57f 56f
6:50 2.5ft 4s 4s 11
mph
1021.9mb 56f 55f
5:50 2.5ft 5s 5s 9 11 mph 1021.8mb 56f 56f
4:50 3ft 5s 5s 7 9 mph 1021.4mb 56f 56f
3:50 2.5ft 5s 5s 7 9 mph 1021.1mb 56f 56f
2:50 3ft 5s 5s 9
mph
1020.8mb 56f 55f
1:50 3ft 5s 5s 9
mph
1020.6mb 56f 55f
12:50 3ft 6s 5s 4 7 mph 1020.3mb 56f 55f
11:50 3ft 5s 5s 7 9 mph 1019.8mb 56f 55f
10:50 3.5ft 6s 5s 7 9 mph 1019.8mb 56f 55f
9:50 3.5ft 5s 5s 7 9 mph 1019.6mb 56f 55f
8:50 4ft 5s 5s 9
mph
1019.5mb 55f 55f
7:50 4ft 5s 4s 9 11 mph 1019.5mb 55f 56f
6:50 4.5ft 5s 5s 11 13 mph 1018.9mb 56f 56f
5:50 4.5ft 6s 5s 11 13 mph 1018.7mb 56f 56f
4:50 4.5ft 5s 5s 13 18 mph 1018.5mb 56f 56f
3:50 5ft 6s 5s 13 18 mph 1018.4mb 56f 57f
2:50 5ft 6s 5s 16 20 mph 1018.2mb 56f 56f
1:50 5ft 6s 5s 18 22 mph 1017.9mb 56f 56f
12:50 5ft 6s 5s 20 25 mph 1017.8mb 56f 56f
mar 07/29 11:50 5ft 6s 5s 20 25 mph 1017.7mb 56f 56f
10:50 5ft 6s 5s 20 25 mph 1017.8mb 56f 56f
9:50 5ft 6s 5s 22 29 mph 1017.6mb 56f 56f
8:50 5ft 6s 5s 13 18 mph 1018.3mb 56f 56f
7:50 5.5ft 6s 5s 18 22 mph 1018mb 56f 55f
6:50 6ft 6s 5s 22 29 mph 1017.6mb 56f 56f
5:50 6ft 6s 5s 20 25 mph 1017.7mb 56f 55f
4:50 6ft 6s 5s 18 22 mph 1018mb 55f 55f
3:50 5.5ft 6s 5s 18 20 mph 1017.7mb 55f 55f
2:50 5ft 5s 5s 18 22 mph 1017.9mb 55f 54f
1:50 5ft 6s 5s 18 20 mph 1017.8mb 55f 54f
12:50 5ft 6s 5s 22 27 mph 1017.9mb 55f 54f
11:50 4.5ft 5s 5s 18 22 mph 1018.1mb 56f 54f
10:50 3.5ft 6s 5s 16 20 mph 1018.8mb 56f 54f
9:50 3.5ft 5s 5s 16 20 mph 1019.1mb 56f 54f
8:50 3.5ft 5s 5s 16 20 mph 1019.3mb 55f 55f
7:50 3.5ft 5s 4s 16 20 mph 1019.5mb 55f 54f
6:50 3.5ft 5s 4s 18 22 mph 1019.6mb 55f 54f
5:50 3.5ft 5s 4s 18 22 mph 1019.7mb 55f 55f
4:50 3.5ft 5s 4s 18 22 mph 1020.2mb 56f 54f
3:50 3.5ft 5s 4s 18 20 mph 1020.6mb 56f 54f
2:50 3.5ft 5s 4s 18 20 mph 1021mb 56f 54f
1:50 3.5ft 5s 4s 16 18 mph 1021.5mb 55f 54f
12:50 3ft 5s 4s 16 18 mph 1021.4mb 55f 54f
lun 07/28 11:50 3ft 5s 4s 13 18 mph 1021.7mb 55f 54f
10:50 3ft 4s 4s 16 20 mph 1021.8mb 55f 54f
9:50 2.5ft 5s 5s 9 16 mph 1022.2mb 55f 54f
8:50 2.5ft 4s 4s 4 7 mph 1022.1mb 55f 54f
7:50 3ft 4s 4s 9 11 mph 1022.1mb 55f 54f
6:50 3ft 5s 4s 13
mph
1022.2mb 55f 54f
5:50 2.5ft 5s 4s 13 16 mph 1021.9mb 55f 54f
4:50 2.5ft 14s 5s 9 11 mph 1021.8mb 55f 54f
3:50 2.5ft 5s 5s 11 13 mph 1021.8mb 55f 54f
2:50 2.5ft 13s 5s 9 11 mph 1021.6mb 55f 55f
1:50 2.5ft 5s 4s 9
mph
1021.5mb 55f 54f
12:50 2.5ft 5s 4s 11 13 mph 1021.3mb 55f 54f
11:50 2.5ft 5s 4s 16 18 mph 1021.3mb 55f 54f
10:50 2.5ft 5s 4s 13 16 mph 1021.5mb 55f 55f
9:50 2.5ft 5s 4s 11 16 mph 1021.5mb 55f 55f
8:50 2.5ft 4s 4s 16 18 mph 1021.1mb 55f 55f
7:50 2.5ft 4s 4s 13 16 mph 1021.2mb 56f 55f
6:50 3ft 4s 4s 16 18 mph 1021mb 56f 55f
5:50 3ft 4s 4s 13 18 mph 1020.7mb 55f 55f
4:50 3ft 4s 4s 16 18 mph 1020.3mb 56f 55f
3:50 2.5ft 5s 4s 13 16 mph 1020.3mb 55f 55f
2:50 2.5ft 5s 4s 16 20 mph 1020.4mb 55f 55f
1:50 2.5ft 5s 4s 13 16 mph 1020.4mb 55f 55f
12:50 2.5ft 6s 4s 13
mph
1020.3mb 55f 55f
dom 07/27 11:50 2.5ft 5s 5s 11 13 mph 1020.5mb 55f 55f